sensor_id;sensor_type;location;lat;lon;timestamp;pressure;altitude;pressure_sealevel;temperature
60949;BMP280;46729;43.010;24.320;2022-08-03T00:01:32;97130.75;;;17.93
60949;BMP280;46729;43.010;24.320;2022-08-03T00:03:57;97127.31;;;17.71
60949;BMP280;46729;43.010;24.320;2022-08-03T00:06:23;97130.59;;;17.39
60949;BMP280;46729;43.010;24.320;2022-08-03T00:08:48;97135.34;;;17.37
60949;BMP280;46729;43.010;24.320;2022-08-03T00:11:14;97129.09;;;17.43
60949;BMP280;46729;43.010;24.320;2022-08-03T00:13:39;97138.75;;;17.71
60949;BMP280;46729;43.010;24.320;2022-08-03T00:16:05;97130.16;;;17.92
60949;BMP280;46729;43.010;24.320;2022-08-03T00:18:31;97140.31;;;17.22
60949;BMP280;46729;43.010;24.320;2022-08-03T00:20:56;97131.06;;;17.14
60949;BMP280;46729;43.010;24.320;2022-08-03T00:23:22;97129.81;;;17.16
60949;BMP280;46729;43.010;24.320;2022-08-03T00:25:47;97136.97;;;17.16
60949;BMP280;46729;43.010;24.320;2022-08-03T00:28:13;97129.41;;;17.57
60949;BMP280;46729;43.010;24.320;2022-08-03T00:30:38;97114.94;;;17.87
60949;BMP280;46729;43.010;24.320;2022-08-03T00:33:04;97125.56;;;17.87
60949;BMP280;46729;43.010;24.320;2022-08-03T00:35:30;97141.66;;;17.70
60949;BMP280;46729;43.010;24.320;2022-08-03T00:37:56;97124.91;;;17.69
60949;BMP280;46729;43.010;24.320;2022-08-03T00:40:21;97121.56;;;17.62
60949;BMP280;46729;43.010;24.320;2022-08-03T00:42:52;97119.28;;;17.54
60949;BMP280;46729;43.010;24.320;2022-08-03T00:45:22;97124.16;;;17.46
60949;BMP280;46729;43.010;24.320;2022-08-03T00:47:48;97116.34;;;17.56
60949;BMP280;46729;43.010;24.320;2022-08-03T00:50:14;97110.13;;;17.62
60949;BMP280;46729;43.010;24.320;2022-08-03T00:52:40;97112.22;;;17.49
60949;BMP280;46729;43.010;24.320;2022-08-03T00:55:06;97112.44;;;17.58
60949;BMP280;46729;43.010;24.320;2022-08-03T00:57:32;97107.84;;;17.54
60949;BMP280;46729;43.010;24.320;2022-08-03T00:59:58;97105.25;;;17.70
60949;BMP280;46729;43.010;24.320;2022-08-03T01:02:27;97110.44;;;17.88
60949;BMP280;46729;43.010;24.320;2022-08-03T01:04:53;97108.75;;;17.98
60949;BMP280;46729;43.010;24.320;2022-08-03T01:07:34;97098.75;;;17.89
60949;BMP280;46729;43.010;24.320;2022-08-03T01:10:09;97109.84;;;17.36
60949;BMP280;46729;43.010;24.320;2022-08-03T01:12:47;97110.31;;;16.99
60949;BMP280;46729;43.010;24.320;2022-08-03T01:17:56;97104.75;;;17.12
60949;BMP280;46729;43.010;24.320;2022-08-03T01:20:26;97107.19;;;17.25
60949;BMP280;46729;43.010;24.320;2022-08-03T01:23:05;97107.66;;;16.99
60949;BMP280;46729;43.010;24.320;2022-08-03T01:30:48;97119.28;;;17.54
60949;BMP280;46729;43.010;24.320;2022-08-03T01:33:19;97103.78;;;17.63
60949;BMP280;46729;43.010;24.320;2022-08-03T01:36:04;97116.72;;;17.59
60949;BMP280;46729;43.010;24.320;2022-08-03T01:38:33;97121.72;;;17.34
60949;BMP280;46729;43.010;24.320;2022-08-03T01:41:06;97115.84;;;16.98
60949;BMP280;46729;43.010;24.320;2022-08-03T01:43:33;97122.06;;;16.92
60949;BMP280;46729;43.010;24.320;2022-08-03T01:46:00;97117.19;;;16.89
60949;BMP280;46729;43.010;24.320;2022-08-03T01:48:27;97121.31;;;16.63
60949;BMP280;46729;43.010;24.320;2022-08-03T01:50:55;97121.25;;;16.92
60949;BMP280;46729;43.010;24.320;2022-08-03T01:53:22;97118.59;;;16.92
60949;BMP280;46729;43.010;24.320;2022-08-03T01:55:51;97115.34;;;16.78
60949;BMP280;46729;43.010;24.320;2022-08-03T01:58:19;97110.13;;;16.61
60949;BMP280;46729;43.010;24.320;2022-08-03T02:00:48;97109.97;;;16.45
60949;BMP280;46729;43.010;24.320;2022-08-03T02:03:14;97116.16;;;16.68
60949;BMP280;46729;43.010;24.320;2022-08-03T02:05:42;97108.19;;;16.90
60949;BMP280;46729;43.010;24.320;2022-08-03T02:08:09;97106.16;;;17.15
60949;BMP280;46729;43.010;24.320;2022-08-03T02:10:36;97110.66;;;17.25
60949;BMP280;46729;43.010;24.320;2022-08-03T02:13:06;97111.53;;;17.42
60949;BMP280;46729;43.010;24.320;2022-08-03T02:15:33;97110.50;;;17.43
60949;BMP280;46729;43.010;24.320;2022-08-03T02:18:01;97121.66;;;17.56
60949;BMP280;46729;43.010;24.320;2022-08-03T02:20:27;97122.63;;;17.50
60949;BMP280;46729;43.010;24.320;2022-08-03T02:22:56;97126.09;;;17.39
60949;BMP280;46729;43.010;24.320;2022-08-03T02:25:21;97130.63;;;17.28
60949;BMP280;46729;43.010;24.320;2022-08-03T02:27:54;97136.00;;;16.77
60949;BMP280;46729;43.010;24.320;2022-08-03T02:30:26;97134.00;;;16.50
60949;BMP280;46729;43.010;24.320;2022-08-03T02:32:55;97144.75;;;16.26
60949;BMP280;46729;43.010;24.320;2022-08-03T02:35:23;97138.28;;;16.22
60949;BMP280;46729;43.010;24.320;2022-08-03T02:37:52;97126.94;;;16.44
60949;BMP280;46729;43.010;24.320;2022-08-03T02:40:19;97124.66;;;16.58
60949;BMP280;46729;43.010;24.320;2022-08-03T02:42:50;97130.25;;;16.91
60949;BMP280;46729;43.010;24.320;2022-08-03T02:45:19;97124.97;;;17.24
60949;BMP280;46729;43.010;24.320;2022-08-03T02:47:45;97128.28;;;17.31
60949;BMP280;46729;43.010;24.320;2022-08-03T02:50:15;97120.34;;;17.09
60949;BMP280;46729;43.010;24.320;2022-08-03T02:52:41;97129.28;;;16.63
60949;BMP280;46729;43.010;24.320;2022-08-03T02:55:10;97133.16;;;16.38
60949;BMP280;46729;43.010;24.320;2022-08-03T02:57:37;97118.78;;;16.57
60949;BMP280;46729;43.010;24.320;2022-08-03T03:00:04;97117.66;;;16.86
60949;BMP280;46729;43.010;24.320;2022-08-03T03:02:30;97114.25;;;17.19
60949;BMP280;46729;43.010;24.320;2022-08-03T03:04:57;97121.63;;;17.29
60949;BMP280;46729;43.010;24.320;2022-08-03T03:07:24;97128.53;;;17.30
60949;BMP280;46729;43.010;24.320;2022-08-03T03:09:51;97124.16;;;17.24
60949;BMP280;46729;43.010;24.320;2022-08-03T03:12:17;97127.72;;;17.07
60949;BMP280;46729;43.010;24.320;2022-08-03T03:14:43;97133.75;;;17.02
60949;BMP280;46729;43.010;24.320;2022-08-03T03:17:10;97142.13;;;16.88
60949;BMP280;46729;43.010;24.320;2022-08-03T03:19:38;97151.94;;;16.77
60949;BMP280;46729;43.010;24.320;2022-08-03T03:22:04;97149.44;;;16.41
60949;BMP280;46729;43.010;24.320;2022-08-03T03:24:33;97156.97;;;16.27
60949;BMP280;46729;43.010;24.320;2022-08-03T03:27:00;97149.06;;;16.09
60949;BMP280;46729;43.010;24.320;2022-08-03T03:29:27;97154.84;;;16.18
60949;BMP280;46729;43.010;24.320;2022-08-03T03:31:53;97156.34;;;16.42
60949;BMP280;46729;43.010;24.320;2022-08-03T03:34:19;97158.34;;;16.69
60949;BMP280;46729;43.010;24.320;2022-08-03T03:36:45;97157.94;;;16.83
60949;BMP280;46729;43.010;24.320;2022-08-03T03:39:11;97166.41;;;17.03
60949;BMP280;46729;43.010;24.320;2022-08-03T03:41:36;97159.13;;;16.98
60949;BMP280;46729;43.010;24.320;2022-08-03T03:44:02;97165.97;;;16.66
60949;BMP280;46729;43.010;24.320;2022-08-03T03:46:28;97169.81;;;16.81
60949;BMP280;46729;43.010;24.320;2022-08-03T03:48:54;97164.22;;;17.00
60949;BMP280;46729;43.010;24.320;2022-08-03T03:51:19;97166.59;;;16.90
60949;BMP280;46729;43.010;24.320;2022-08-03T03:53:59;97162.88;;;16.69
60949;BMP280;46729;43.010;24.320;2022-08-03T03:56:25;97171.69;;;16.40
60949;BMP280;46729;43.010;24.320;2022-08-03T03:58:52;97179.69;;;16.63
60949;BMP280;46729;43.010;24.320;2022-08-03T04:01:18;97173.53;;;16.91
60949;BMP280;46729;43.010;24.320;2022-08-03T04:03:44;97167.56;;;17.07
60949;BMP280;46729;43.010;24.320;2022-08-03T04:06:10;97175.06;;;17.21
60949;BMP280;46729;43.010;24.320;2022-08-03T04:08:54;97168.66;;;16.88
60949;BMP280;46729;43.010;24.320;2022-08-03T04:11:42;97166.53;;;16.57
60949;BMP280;46729;43.010;24.320;2022-08-03T04:14:22;97167.94;;;16.59
60949;BMP280;46729;43.010;24.320;2022-08-03T04:17:01;97161.72;;;16.87
60949;BMP280;46729;43.010;24.320;2022-08-03T04:19:33;97155.09;;;17.07
60949;BMP280;46729;43.010;24.320;2022-08-03T04:22:01;97161.44;;;17.06
60949;BMP280;46729;43.010;24.320;2022-08-03T04:24:32;97169.75;;;17.21
60949;BMP280;46729;43.010;24.320;2022-08-03T04:27:02;97172.31;;;17.27
60949;BMP280;46729;43.010;24.320;2022-08-03T04:29:30;97161.91;;;17.26
60949;BMP280;46729;43.010;24.320;2022-08-03T04:31:59;97170.09;;;17.24
60949;BMP280;46729;43.010;24.320;2022-08-03T04:34:26;97188.91;;;17.00
60949;BMP280;46729;43.010;24.320;2022-08-03T04:36:58;97188.13;;;17.22
60949;BMP280;46729;43.010;24.320;2022-08-03T04:39:26;97179.81;;;17.41
60949;BMP280;46729;43.010;24.320;2022-08-03T04:41:57;97179.56;;;17.54
60949;BMP280;46729;43.010;24.320;2022-08-03T04:44:23;97181.16;;;17.66
60949;BMP280;46729;43.010;24.320;2022-08-03T04:46:50;97189.94;;;17.55
60949;BMP280;46729;43.010;24.320;2022-08-03T04:49:17;97186.97;;;17.41
60949;BMP280;46729;43.010;24.320;2022-08-03T04:51:44;97191.94;;;17.37
60949;BMP280;46729;43.010;24.320;2022-08-03T04:54:13;97193.22;;;17.46
60949;BMP280;46729;43.010;24.320;2022-08-03T04:56:41;97190.19;;;17.43
60949;BMP280;46729;43.010;24.320;2022-08-03T04:59:08;97201.88;;;17.42
60949;BMP280;46729;43.010;24.320;2022-08-03T05:01:34;97197.38;;;17.54
60949;BMP280;46729;43.010;24.320;2022-08-03T05:03:59;97195.63;;;17.70
60949;BMP280;46729;43.010;24.320;2022-08-03T05:06:25;97200.81;;;17.88
60949;BMP280;46729;43.010;24.320;2022-08-03T05:08:51;97195.81;;;17.91
60949;BMP280;46729;43.010;24.320;2022-08-03T05:11:16;97198.91;;;17.99
60949;BMP280;46729;43.010;24.320;2022-08-03T05:13:43;97205.25;;;18.10
60949;BMP280;46729;43.010;24.320;2022-08-03T05:16:09;97197.22;;;18.32
60949;BMP280;46729;43.010;24.320;2022-08-03T05:18:34;97194.09;;;18.51
60949;BMP280;46729;43.010;24.320;2022-08-03T05:21:00;97196.03;;;18.67
60949;BMP280;46729;43.010;24.320;2022-08-03T05:23:26;97187.28;;;18.82
60949;BMP280;46729;43.010;24.320;2022-08-03T05:25:51;97195.34;;;19.03
60949;BMP280;46729;43.010;24.320;2022-08-03T05:28:17;97212.00;;;19.26
60949;BMP280;46729;43.010;24.320;2022-08-03T05:30:43;97216.69;;;19.35
60949;BMP280;46729;43.010;24.320;2022-08-03T05:33:09;97214.06;;;19.40
60949;BMP280;46729;43.010;24.320;2022-08-03T05:35:35;97220.03;;;19.47
60949;BMP280;46729;43.010;24.320;2022-08-03T05:38:03;97216.50;;;19.58
60949;BMP280;46729;43.010;24.320;2022-08-03T05:40:30;97220.13;;;19.68
60949;BMP280;46729;43.010;24.320;2022-08-03T05:42:56;97221.00;;;19.73
60949;BMP280;46729;43.010;24.320;2022-08-03T05:45:22;97220.28;;;19.78
60949;BMP280;46729;43.010;24.320;2022-08-03T05:47:48;97235.06;;;19.85
60949;BMP280;46729;43.010;24.320;2022-08-03T05:50:16;97246.69;;;19.79
60949;BMP280;46729;43.010;24.320;2022-08-03T05:52:42;97245.09;;;19.78
60949;BMP280;46729;43.010;24.320;2022-08-03T05:55:09;97244.72;;;19.91
60949;BMP280;46729;43.010;24.320;2022-08-03T05:57:35;97249.34;;;19.95
60949;BMP280;46729;43.010;24.320;2022-08-03T06:00:09;97249.88;;;19.97
60949;BMP280;46729;43.010;24.320;2022-08-03T06:02:35;97249.09;;;19.81
60949;BMP280;46729;43.010;24.320;2022-08-03T06:05:01;97259.22;;;19.79
60949;BMP280;46729;43.010;24.320;2022-08-03T06:07:27;97258.41;;;19.94
60949;BMP280;46729;43.010;24.320;2022-08-03T06:09:52;97262.78;;;20.05
60949;BMP280;46729;43.010;24.320;2022-08-03T06:12:18;97260.22;;;20.10
60949;BMP280;46729;43.010;24.320;2022-08-03T06:14:44;97255.97;;;20.14
60949;BMP280;46729;43.010;24.320;2022-08-03T06:17:10;97253.63;;;20.17
60949;BMP280;46729;43.010;24.320;2022-08-03T06:19:35;97257.44;;;20.21
60949;BMP280;46729;43.010;24.320;2022-08-03T06:22:01;97253.53;;;20.28
60949;BMP280;46729;43.010;24.320;2022-08-03T06:24:27;97252.69;;;20.07
60949;BMP280;46729;43.010;24.320;2022-08-03T06:26:52;97260.84;;;20.17
60949;BMP280;46729;43.010;24.320;2022-08-03T06:29:18;97255.94;;;20.30
60949;BMP280;46729;43.010;24.320;2022-08-03T06:31:44;97254.59;;;20.48
60949;BMP280;46729;43.010;24.320;2022-08-03T06:34:09;97250.09;;;20.75
60949;BMP280;46729;43.010;24.320;2022-08-03T06:36:35;97245.38;;;21.07
60949;BMP280;46729;43.010;24.320;2022-08-03T06:39:00;97236.91;;;21.46
60949;BMP280;46729;43.010;24.320;2022-08-03T06:41:27;97239.09;;;21.84
60949;BMP280;46729;43.010;24.320;2022-08-03T06:43:53;97238.75;;;22.21
60949;BMP280;46729;43.010;24.320;2022-08-03T06:46:19;97240.28;;;22.53
60949;BMP280;46729;43.010;24.320;2022-08-03T06:48:44;97233.44;;;22.91
60949;BMP280;46729;43.010;24.320;2022-08-03T06:51:10;97226.00;;;23.22
60949;BMP280;46729;43.010;24.320;2022-08-03T06:53:36;97220.91;;;23.50
60949;BMP280;46729;43.010;24.320;2022-08-03T06:56:03;97225.47;;;23.74
60949;BMP280;46729;43.010;24.320;2022-08-03T06:58:29;97219.53;;;23.77
60949;BMP280;46729;43.010;24.320;2022-08-03T07:00:54;97217.13;;;24.00
60949;BMP280;46729;43.010;24.320;2022-08-03T07:03:20;97216.81;;;24.16
60949;BMP280;46729;43.010;24.320;2022-08-03T07:05:46;97228.31;;;24.31
60949;BMP280;46729;43.010;24.320;2022-08-03T07:08:12;97210.78;;;24.48
60949;BMP280;46729;43.010;24.320;2022-08-03T07:10:38;97214.22;;;24.63
60949;BMP280;46729;43.010;24.320;2022-08-03T07:13:05;97213.06;;;24.83
60949;BMP280;46729;43.010;24.320;2022-08-03T07:15:31;97213.53;;;24.90
60949;BMP280;46729;43.010;24.320;2022-08-03T07:17:58;97209.72;;;24.96
60949;BMP280;46729;43.010;24.320;2022-08-03T07:20:23;97211.06;;;24.99
60949;BMP280;46729;43.010;24.320;2022-08-03T07:22:49;97211.81;;;25.09
60949;BMP280;46729;43.010;24.320;2022-08-03T07:25:14;97212.25;;;25.21
60949;BMP280;46729;43.010;24.320;2022-08-03T07:27:43;97211.47;;;25.20
60949;BMP280;46729;43.010;24.320;2022-08-03T07:30:10;97207.91;;;25.29
60949;BMP280;46729;43.010;24.320;2022-08-03T07:32:36;97209.38;;;25.50
60949;BMP280;46729;43.010;24.320;2022-08-03T07:35:03;97210.22;;;25.45
60949;BMP280;46729;43.010;24.320;2022-08-03T07:37:29;97214.66;;;25.60
60949;BMP280;46729;43.010;24.320;2022-08-03T07:39:55;97216.41;;;25.74
60949;BMP280;46729;43.010;24.320;2022-08-03T07:42:20;97218.91;;;25.65
60949;BMP280;46729;43.010;24.320;2022-08-03T07:44:48;97219.09;;;25.46
60949;BMP280;46729;43.010;24.320;2022-08-03T07:47:27;97220.06;;;25.27
60949;BMP280;46729;43.010;24.320;2022-08-03T07:49:53;97220.28;;;25.30
60949;BMP280;46729;43.010;24.320;2022-08-03T07:52:19;97223.41;;;25.42
60949;BMP280;46729;43.010;24.320;2022-08-03T07:55:05;97225.25;;;25.46
60949;BMP280;46729;43.010;24.320;2022-08-03T07:57:31;97225.31;;;25.41
60949;BMP280;46729;43.010;24.320;2022-08-03T07:59:56;97233.13;;;25.38
60949;BMP280;46729;43.010;24.320;2022-08-03T08:02:22;97235.78;;;25.43
60949;BMP280;46729;43.010;24.320;2022-08-03T08:04:48;97237.63;;;25.47
60949;BMP280;46729;43.010;24.320;2022-08-03T08:07:13;97238.50;;;25.38
60949;BMP280;46729;43.010;24.320;2022-08-03T08:09:39;97236.63;;;25.39
60949;BMP280;46729;43.010;24.320;2022-08-03T08:12:05;97236.94;;;25.37
60949;BMP280;46729;43.010;24.320;2022-08-03T08:14:32;97235.47;;;25.49
60949;BMP280;46729;43.010;24.320;2022-08-03T08:16:58;97245.28;;;25.68
60949;BMP280;46729;43.010;24.320;2022-08-03T08:19:24;97239.47;;;25.84
60949;BMP280;46729;43.010;24.320;2022-08-03T08:21:49;97246.69;;;25.94
60949;BMP280;46729;43.010;24.320;2022-08-03T08:24:15;97244.34;;;26.10
60949;BMP280;46729;43.010;24.320;2022-08-03T08:26:40;97237.50;;;26.22
60949;BMP280;46729;43.010;24.320;2022-08-03T08:29:06;97237.88;;;26.34
60949;BMP280;46729;43.010;24.320;2022-08-03T08:31:32;97243.16;;;26.49
60949;BMP280;46729;43.010;24.320;2022-08-03T08:33:57;97236.66;;;26.50
60949;BMP280;46729;43.010;24.320;2022-08-03T08:36:23;97237.50;;;26.22
60949;BMP280;46729;43.010;24.320;2022-08-03T08:38:48;97237.41;;;26.32
60949;BMP280;46729;43.010;24.320;2022-08-03T08:41:14;97243.66;;;26.51
60949;BMP280;46729;43.010;24.320;2022-08-03T08:43:41;97229.44;;;26.86
60949;BMP280;46729;43.010;24.320;2022-08-03T08:46:11;97232.72;;;27.01
60949;BMP280;46729;43.010;24.320;2022-08-03T08:48:40;97240.06;;;26.78
60949;BMP280;46729;43.010;24.320;2022-08-03T08:51:07;97238.56;;;26.49
60949;BMP280;46729;43.010;24.320;2022-08-03T08:53:36;97237.34;;;26.83
60949;BMP280;46729;43.010;24.320;2022-08-03T08:56:02;97230.25;;;27.10
60949;BMP280;46729;43.010;24.320;2022-08-03T08:58:32;97221.31;;;27.27
60949;BMP280;46729;43.010;24.320;2022-08-03T09:00:59;97229.91;;;27.47
60949;BMP280;46729;43.010;24.320;2022-08-03T09:03:25;97215.69;;;27.60
60949;BMP280;46729;43.010;24.320;2022-08-03T09:05:51;97217.47;;;27.64
60949;BMP280;46729;43.010;24.320;2022-08-03T09:08:17;97212.34;;;27.81
60949;BMP280;46729;43.010;24.320;2022-08-03T09:10:43;97208.78;;;27.85
60949;BMP280;46729;43.010;24.320;2022-08-03T09:13:09;97208.72;;;28.03
60949;BMP280;46729;43.010;24.320;2022-08-03T09:15:34;97205.63;;;28.10
60949;BMP280;46729;43.010;24.320;2022-08-03T09:18:03;97204.13;;;28.17
60949;BMP280;46729;43.010;24.320;2022-08-03T09:20:31;97201.78;;;28.29
60949;BMP280;46729;43.010;24.320;2022-08-03T09:23:07;97195.28;;;28.30
60949;BMP280;46729;43.010;24.320;2022-08-03T09:25:35;97192.56;;;28.43
60949;BMP280;46729;43.010;24.320;2022-08-03T09:28:14;97199.66;;;28.52
60949;BMP280;46729;43.010;24.320;2022-08-03T09:30:43;97194.72;;;28.67
60949;BMP280;46729;43.010;24.320;2022-08-03T09:33:13;97185.22;;;28.69
60949;BMP280;46729;43.010;24.320;2022-08-03T09:35:46;97193.44;;;28.78
60949;BMP280;46729;43.010;24.320;2022-08-03T09:38:22;97193.03;;;28.71
60949;BMP280;46729;43.010;24.320;2022-08-03T09:40:52;97195.03;;;28.39
60949;BMP280;46729;43.010;24.320;2022-08-03T09:43:18;97191.34;;;28.62
60949;BMP280;46729;43.010;24.320;2022-08-03T09:45:44;97188.94;;;28.87
60949;BMP280;46729;43.010;24.320;2022-08-03T09:50:55;97187.78;;;29.01
60949;BMP280;46729;43.010;24.320;2022-08-03T09:53:22;97184.50;;;29.25
60949;BMP280;46729;43.010;24.320;2022-08-03T09:56:01;97185.59;;;29.03
60949;BMP280;46729;43.010;24.320;2022-08-03T09:58:29;97184.94;;;29.19
60949;BMP280;46729;43.010;24.320;2022-08-03T10:01:04;97173.97;;;29.37
60949;BMP280;46729;43.010;24.320;2022-08-03T10:03:33;97168.16;;;29.51
60949;BMP280;46729;43.010;24.320;2022-08-03T10:06:13;97168.97;;;29.52
60949;BMP280;46729;43.010;24.320;2022-08-03T10:08:39;97160.78;;;29.65
60949;BMP280;46729;43.010;24.320;2022-08-03T10:11:05;97164.81;;;29.67
60949;BMP280;46729;43.010;24.320;2022-08-03T10:13:30;97165.16;;;29.74
60949;BMP280;46729;43.010;24.320;2022-08-03T10:15:56;97160.53;;;29.75
60949;BMP280;46729;43.010;24.320;2022-08-03T10:18:22;97157.19;;;29.78
60949;BMP280;46729;43.010;24.320;2022-08-03T10:20:51;97160.28;;;29.20
60949;BMP280;46729;43.010;24.320;2022-08-03T10:23:18;97147.31;;;29.52
60949;BMP280;46729;43.010;24.320;2022-08-03T10:25:52;97144.16;;;29.80
60949;BMP280;46729;43.010;24.320;2022-08-03T10:31:44;97146.44;;;30.16
60949;BMP280;46729;43.010;24.320;2022-08-03T10:34:17;97139.44;;;29.64
60949;BMP280;46729;43.010;24.320;2022-08-03T10:36:46;97137.72;;;29.67
60949;BMP280;46729;43.010;24.320;2022-08-03T10:39:17;97131.81;;;30.33
60949;BMP280;46729;43.010;24.320;2022-08-03T10:41:45;97128.88;;;30.43
60949;BMP280;46729;43.010;24.320;2022-08-03T10:44:20;97129.66;;;30.43
60949;BMP280;46729;43.010;24.320;2022-08-03T10:46:50;97128.13;;;30.67
60949;BMP280;46729;43.010;24.320;2022-08-03T10:49:18;97119.69;;;30.77
60949;BMP280;46729;43.010;24.320;2022-08-03T10:51:48;97124.44;;;30.80
60949;BMP280;46729;43.010;24.320;2022-08-03T10:54:47;97119.41;;;31.03
60949;BMP280;46729;43.010;24.320;2022-08-03T10:57:48;97110.94;;;31.30
60949;BMP280;46729;43.010;24.320;2022-08-03T11:00:18;97114.59;;;31.34
60949;BMP280;46729;43.010;24.320;2022-08-03T11:03:17;97104.41;;;31.31
60949;BMP280;46729;43.010;24.320;2022-08-03T11:05:47;97105.50;;;31.46
60949;BMP280;46729;43.010;24.320;2022-08-03T11:08:18;97106.91;;;31.60
60949;BMP280;46729;43.010;24.320;2022-08-03T11:10:46;97103.25;;;31.57
60949;BMP280;46729;43.010;24.320;2022-08-03T11:13:19;97097.38;;;31.46
60949;BMP280;46729;43.010;24.320;2022-08-03T11:15:48;97092.56;;;31.52
60949;BMP280;46729;43.010;24.320;2022-08-03T11:18:14;97089.34;;;31.58
60949;BMP280;46729;43.010;24.320;2022-08-03T11:20:58;97088.06;;;31.64
60949;BMP280;46729;43.010;24.320;2022-08-03T11:23:45;97083.25;;;31.61
60949;BMP280;46729;43.010;24.320;2022-08-03T11:26:16;97074.22;;;31.07
60949;BMP280;46729;43.010;24.320;2022-08-03T11:28:49;97081.03;;;31.63
60949;BMP280;46729;43.010;24.320;2022-08-03T11:34:07;97072.19;;;31.82
60949;BMP280;46729;43.010;24.320;2022-08-03T11:39:43;97063.50;;;31.89
60949;BMP280;46729;43.010;24.320;2022-08-03T11:44:52;97053.91;;;31.99
60949;BMP280;46729;43.010;24.320;2022-08-03T11:47:20;97048.09;;;32.09
60949;BMP280;46729;43.010;24.320;2022-08-03T11:49:49;97048.84;;;32.18
60949;BMP280;46729;43.010;24.320;2022-08-03T11:52:16;97053.94;;;32.19
60949;BMP280;46729;43.010;24.320;2022-08-03T11:54:44;97047.34;;;32.29
60949;BMP280;46729;43.010;24.320;2022-08-03T11:57:27;97045.28;;;32.54
60949;BMP280;46729;43.010;24.320;2022-08-03T11:59:54;97041.75;;;32.53
60949;BMP280;46729;43.010;24.320;2022-08-03T12:02:21;97042.25;;;32.55
60949;BMP280;46729;43.010;24.320;2022-08-03T12:07:17;97044.47;;;31.97
60949;BMP280;46729;43.010;24.320;2022-08-03T12:10:10;97044.88;;;31.71
60949;BMP280;46729;43.010;24.320;2022-08-03T12:12:36;97039.97;;;31.93
60949;BMP280;46729;43.010;24.320;2022-08-03T12:15:04;97039.97;;;32.01
60949;BMP280;46729;43.010;24.320;2022-08-03T12:17:36;97023.50;;;32.34
60949;BMP280;46729;43.010;24.320;2022-08-03T12:20:05;97032.16;;;31.99
60949;BMP280;46729;43.010;24.320;2022-08-03T12:22:37;97023.44;;;31.77
60949;BMP280;46729;43.010;24.320;2022-08-03T12:25:08;97030.09;;;31.35
60949;BMP280;46729;43.010;24.320;2022-08-03T12:27:36;97036.50;;;30.89
60949;BMP280;46729;43.010;24.320;2022-08-03T12:30:03;97033.66;;;30.61
60949;BMP280;46729;43.010;24.320;2022-08-03T12:32:29;97033.47;;;30.58
60949;BMP280;46729;43.010;24.320;2022-08-03T12:34:57;97035.72;;;30.97
60949;BMP280;46729;43.010;24.320;2022-08-03T12:37:25;97023.09;;;31.18
60949;BMP280;46729;43.010;24.320;2022-08-03T12:39:52;97021.63;;;31.37
60949;BMP280;46729;43.010;24.320;2022-08-03T12:42:18;97028.09;;;31.69
60949;BMP280;46729;43.010;24.320;2022-08-03T12:44:44;97025.47;;;31.89
60949;BMP280;46729;43.010;24.320;2022-08-03T12:47:11;97027.81;;;32.07
60949;BMP280;46729;43.010;24.320;2022-08-03T12:49:48;97019.88;;;32.22
60949;BMP280;46729;43.010;24.320;2022-08-03T12:52:14;97015.50;;;32.29
60949;BMP280;46729;43.010;24.320;2022-08-03T12:54:40;97010.31;;;32.64
60949;BMP280;46729;43.010;24.320;2022-08-03T12:57:11;97006.75;;;32.24
60949;BMP280;46729;43.010;24.320;2022-08-03T12:59:41;97005.78;;;32.00
60949;BMP280;46729;43.010;24.320;2022-08-03T13:02:15;96996.13;;;32.59
60949;BMP280;46729;43.010;24.320;2022-08-03T13:04:42;97000.41;;;32.40
60949;BMP280;46729;43.010;24.320;2022-08-03T13:07:09;96997.53;;;32.65
60949;BMP280;46729;43.010;24.320;2022-08-03T13:09:42;96994.19;;;32.99
60949;BMP280;46729;43.010;24.320;2022-08-03T13:12:14;96992.84;;;33.05
60949;BMP280;46729;43.010;24.320;2022-08-03T13:14:44;96990.81;;;33.02
60949;BMP280;46729;43.010;24.320;2022-08-03T13:17:10;96994.78;;;32.45
60949;BMP280;46729;43.010;24.320;2022-08-03T13:19:36;97006.81;;;32.15
60949;BMP280;46729;43.010;24.320;2022-08-03T13:22:18;97008.16;;;32.01
60949;BMP280;46729;43.010;24.320;2022-08-03T13:24:47;97005.06;;;31.75
60949;BMP280;46729;43.010;24.320;2022-08-03T13:27:13;97018.31;;;31.31
60949;BMP280;46729;43.010;24.320;2022-08-03T13:29:39;97013.56;;;30.95
60949;BMP280;46729;43.010;24.320;2022-08-03T13:32:07;97001.72;;;30.83
60949;BMP280;46729;43.010;24.320;2022-08-03T13:34:33;97013.53;;;31.20
60949;BMP280;46729;43.010;24.320;2022-08-03T13:36:58;96999.59;;;31.46
60949;BMP280;46729;43.010;24.320;2022-08-03T13:39:24;97005.69;;;31.80
60949;BMP280;46729;43.010;24.320;2022-08-03T13:41:50;96992.63;;;32.02
60949;BMP280;46729;43.010;24.320;2022-08-03T13:44:16;96996.84;;;31.99
60949;BMP280;46729;43.010;24.320;2022-08-03T13:46:43;96993.69;;;32.17
60949;BMP280;46729;43.010;24.320;2022-08-03T13:49:08;96987.53;;;31.92
60949;BMP280;46729;43.010;24.320;2022-08-03T13:51:34;96987.59;;;31.39
60949;BMP280;46729;43.010;24.320;2022-08-03T13:54:00;96983.78;;;31.23
60949;BMP280;46729;43.010;24.320;2022-08-03T13:56:26;96981.44;;;31.67
60949;BMP280;46729;43.010;24.320;2022-08-03T13:58:52;96980.00;;;32.06
60949;BMP280;46729;43.010;24.320;2022-08-03T14:01:17;96982.03;;;31.80
60949;BMP280;46729;43.010;24.320;2022-08-03T14:03:43;96989.53;;;31.47
60949;BMP280;46729;43.010;24.320;2022-08-03T14:06:10;96991.47;;;31.30
60949;BMP280;46729;43.010;24.320;2022-08-03T14:08:36;96995.34;;;31.04
60949;BMP280;46729;43.010;24.320;2022-08-03T14:11:02;96985.44;;;30.83
60949;BMP280;46729;43.010;24.320;2022-08-03T14:13:28;96991.97;;;30.90
60949;BMP280;46729;43.010;24.320;2022-08-03T14:15:53;96987.47;;;31.27
60949;BMP280;46729;43.010;24.320;2022-08-03T14:18:20;96991.75;;;31.37
60949;BMP280;46729;43.010;24.320;2022-08-03T14:20:46;96986.34;;;31.45
60949;BMP280;46729;43.010;24.320;2022-08-03T14:23:12;96985.22;;;31.38
60949;BMP280;46729;43.010;24.320;2022-08-03T14:25:38;96980.38;;;31.51
60949;BMP280;46729;43.010;24.320;2022-08-03T14:28:06;96988.06;;;31.49